createdAt,value
2016-11-15T00:00:36.798Z,926.84
2016-11-15T00:01:47.115Z,926.82
2016-11-15T00:02:57.437Z,926.83
2016-11-15T00:04:07.757Z,926.8
2016-11-15T00:05:18.080Z,926.81
2016-11-15T00:06:43.067Z,926.79
2016-11-15T00:07:53.856Z,926.8
2016-11-15T00:09:04.179Z,926.79
2016-11-15T00:10:14.496Z,926.79
2016-11-15T00:11:24.813Z,926.71
2016-11-15T00:12:35.130Z,926.79
2016-11-15T00:13:45.447Z,926.71
2016-11-15T00:14:55.764Z,926.68
2016-11-15T00:16:06.079Z,926.7
2016-11-15T00:17:30.971Z,926.65
2016-11-15T00:18:41.297Z,926.72
2016-11-15T00:19:51.611Z,926.69
2016-11-15T00:21:01.935Z,926.76
2016-11-15T00:22:26.820Z,926.74
2016-11-15T00:23:37.241Z,926.74
2016-11-15T00:24:47.559Z,926.76
2016-11-15T00:26:12.453Z,926.69
2016-11-15T00:28:47.709Z,926.71
2016-11-15T00:29:58.038Z,926.72
2016-11-15T00:31:08.361Z,926.82
2016-11-15T00:32:18.678Z,926.78
2016-11-15T00:33:29.131Z,926.78
2016-11-15T00:34:39.569Z,926.8
2016-11-15T00:35:50.006Z,926.76
2016-11-15T00:37:00.443Z,926.76
2016-11-15T00:38:10.880Z,926.78
2016-11-15T00:39:21.415Z,926.75
2016-11-15T00:40:31.976Z,926.72
2016-11-15T00:41:42.506Z,926.72
2016-11-15T00:42:53.040Z,926.74
2016-11-15T00:44:03.569Z,926.73
2016-11-15T00:45:14.302Z,926.74
2016-11-15T00:46:24.863Z,926.73
2016-11-15T00:47:35.392Z,926.75
2016-11-15T00:48:45.930Z,926.74
2016-11-15T00:49:56.462Z,926.8
2016-11-15T00:51:07.194Z,926.82
2016-11-15T00:52:17.727Z,926.79
2016-11-15T00:53:28.255Z,926.84
2016-11-15T00:54:38.795Z,926.85
2016-11-15T00:55:49.327Z,926.87
2016-11-15T00:56:59.854Z,926.88
2016-11-15T00:58:10.383Z,926.93
2016-11-15T00:59:20.922Z,926.91
2016-11-15T01:00:31.457Z,926.97
2016-11-15T01:01:41.985Z,926.97
2016-11-15T01:02:52.624Z,926.99
2016-11-15T01:04:03.149Z,926.98
2016-11-15T01:05:13.691Z,926.99
2016-11-15T01:06:24.225Z,926.96
2016-11-15T01:07:34.758Z,927
2016-11-15T01:08:45.292Z,926.95
2016-11-15T01:09:55.826Z,926.92
2016-11-15T01:11:06.356Z,926.88
2016-11-15T01:12:16.884Z,926.88
2016-11-15T01:13:27.420Z,926.91
2016-11-15T01:14:38.151Z,926.85
2016-11-15T01:15:48.683Z,926.85
2016-11-15T01:16:59.252Z,926.85
2016-11-15T01:18:09.783Z,926.88
2016-11-15T01:19:34.837Z,926.86
2016-11-15T01:20:45.567Z,926.91
2016-11-15T01:21:56.096Z,926.92
2016-11-15T01:23:06.623Z,926.88
2016-11-15T01:24:17.149Z,926.84
2016-11-15T01:25:27.678Z,926.88
2016-11-15T01:26:38.209Z,926.8
2016-11-15T01:27:48.744Z,926.83
2016-11-15T01:28:59.276Z,926.81
2016-11-15T01:30:09.805Z,926.8
2016-11-15T01:31:20.333Z,926.78
2016-11-15T01:32:31.389Z,926.79
2016-11-15T01:33:56.950Z,926.86
2016-11-15T01:35:07.483Z,926.85
2016-11-15T01:36:18.011Z,926.86
2016-11-15T01:37:28.683Z,926.84
2016-11-15T01:38:39.217Z,926.83
2016-11-15T01:39:49.744Z,926.86
2016-11-15T01:41:00.273Z,926.85
2016-11-15T01:42:10.802Z,926.85
2016-11-15T01:43:21.330Z,926.9
2016-11-15T01:44:31.861Z,926.88
2016-11-15T01:45:42.390Z,926.91
2016-11-15T01:46:52.921Z,926.9
2016-11-15T01:48:03.649Z,926.95
2016-11-15T01:49:14.179Z,926.96
2016-11-15T01:50:39.232Z,926.94
2016-11-15T01:51:49.767Z,926.94
2016-11-15T01:53:00.306Z,926.91
2016-11-15T01:54:11.530Z,926.91
2016-11-15T01:55:36.594Z,926.91
2016-11-15T01:56:47.123Z,926.91
2016-11-15T01:57:57.685Z,926.94
2016-11-15T01:59:22.957Z,926.91
2016-11-15T02:00:33.486Z,926.92
2016-11-15T02:01:44.022Z,926.88
2016-11-15T02:02:54.552Z,926.89
2016-11-15T02:04:05.320Z,926.89
2016-11-15T02:05:15.848Z,926.86
2016-11-15T02:06:26.387Z,926.82
2016-11-15T02:07:36.912Z,926.82
2016-11-15T02:08:47.448Z,926.8
2016-11-15T02:09:58.156Z,926.79
2016-11-15T02:11:08.598Z,926.75
2016-11-15T02:12:19.068Z,926.71
2016-11-15T02:13:44.080Z,926.71
2016-11-15T02:14:54.519Z,926.69
2016-11-15T02:16:05.155Z,926.62
2016-11-15T02:17:15.594Z,926.63
2016-11-15T02:18:40.574Z,926.58
2016-11-15T02:19:51.013Z,926.59
2016-11-15T02:21:01.554Z,926.58
2016-11-15T02:22:11.993Z,926.57
2016-11-15T02:23:22.429Z,926.58
2016-11-15T02:24:32.868Z,926.54
2016-11-15T02:25:43.330Z,926.55
2016-11-15T02:27:08.314Z,926.59
2016-11-15T02:28:18.748Z,926.5
2016-11-15T02:29:29.193Z,926.53
2016-11-15T02:30:39.630Z,926.54
2016-11-15T02:31:50.068Z,926.49
2016-11-15T02:33:00.502Z,926.54
2016-11-15T02:34:10.946Z,926.51
2016-11-15T02:35:21.386Z,926.52
2016-11-15T02:36:31.825Z,926.55
2016-11-15T02:37:42.262Z,926.51
2016-11-15T02:38:52.697Z,926.54
2016-11-15T02:40:03.139Z,926.53
2016-11-15T02:41:13.575Z,926.47
2016-11-15T02:42:24.109Z,926.54
2016-11-15T02:43:34.541Z,926.53
2016-11-15T02:44:44.978Z,926.49
2016-11-15T02:46:09.958Z,926.47
2016-11-15T02:47:20.394Z,926.43
2016-11-15T02:48:30.929Z,926.42
2016-11-15T02:49:41.378Z,926.4
2016-11-15T02:50:51.817Z,926.4
2016-11-15T02:52:02.256Z,926.36
2016-11-15T02:53:12.797Z,926.39
2016-11-15T02:54:23.257Z,926.39
2016-11-15T02:55:33.789Z,926.36
2016-11-15T02:56:44.320Z,926.38
2016-11-15T02:57:54.882Z,926.39
2016-11-15T02:59:05.410Z,926.39
2016-11-15T03:00:15.938Z,926.39
2016-11-15T03:01:55.519Z,926.35
2016-11-15T03:03:06.553Z,926.32
2016-11-15T03:04:17.084Z,926.3
2016-11-15T03:05:27.614Z,926.29
2016-11-15T03:06:38.145Z,926.25
2016-11-15T03:07:48.710Z,926.2
2016-11-15T03:08:59.239Z,926.23
2016-11-15T03:10:09.869Z,926.19
2016-11-15T03:11:20.399Z,926.18
2016-11-15T03:12:30.937Z,926.13
2016-11-15T03:13:41.469Z,926.18
2016-11-15T03:15:06.524Z,926.17
2016-11-15T03:16:17.057Z,926.14
2016-11-15T03:17:27.586Z,926.16
2016-11-15T03:18:38.119Z,926.13
2016-11-15T03:19:48.648Z,926.16
2016-11-15T03:20:59.278Z,926.16
2016-11-15T03:22:09.803Z,926.19
2016-11-15T03:23:20.331Z,926.14
2016-11-15T03:24:30.851Z,926.17
2016-11-15T03:25:41.261Z,926.16
2016-11-15T03:26:51.670Z,926.18
2016-11-15T03:28:02.084Z,926.13
2016-11-15T03:29:12.507Z,926.1
2016-11-15T03:30:22.921Z,926.08
2016-11-15T03:31:33.327Z,926.04
2016-11-15T03:32:43.846Z,926.05
2016-11-15T03:33:54.256Z,926.07
2016-11-15T03:35:04.661Z,926.06
2016-11-15T03:36:15.072Z,926.02
2016-11-15T03:37:25.482Z,925.98
2016-11-15T03:38:36.094Z,925.99
2016-11-15T03:39:46.505Z,925.93
2016-11-15T03:40:56.916Z,925.93
2016-11-15T03:42:07.332Z,925.95
2016-11-15T03:43:17.743Z,925.9
2016-11-15T03:44:28.255Z,925.87
2016-11-15T03:45:38.695Z,925.83
2016-11-15T03:46:49.104Z,925.8
2016-11-15T03:47:59.554Z,925.81
2016-11-15T03:49:24.546Z,925.74
2016-11-15T03:50:35.157Z,925.77
2016-11-15T03:51:45.564Z,925.75
2016-11-15T03:52:55.974Z,925.72
2016-11-15T03:54:06.380Z,925.7
2016-11-15T03:55:16.893Z,925.74
2016-11-15T03:56:27.304Z,925.73
2016-11-15T03:57:37.731Z,925.74
2016-11-15T03:58:48.259Z,925.73
2016-11-15T03:59:58.819Z,925.75
2016-11-15T04:01:09.350Z,925.76
2016-11-15T04:02:19.876Z,925.8
2016-11-15T04:03:30.403Z,925.75
2016-11-15T04:04:40.936Z,925.74
2016-11-15T04:05:51.464Z,925.73
2016-11-15T04:07:02.195Z,925.73
2016-11-15T04:08:12.726Z,925.75
2016-11-15T04:09:23.302Z,925.75
2016-11-15T04:10:33.834Z,925.69
2016-11-15T04:11:44.364Z,925.73
2016-11-15T04:12:55.096Z,925.69
2016-11-15T04:14:05.668Z,925.69
2016-11-15T04:15:16.199Z,925.69
2016-11-15T04:16:26.734Z,925.63
2016-11-15T04:17:37.264Z,925.65
2016-11-15T04:18:47.867Z,925.62
2016-11-15T04:19:58.394Z,925.56
2016-11-15T04:21:08.923Z,925.57
2016-11-15T04:22:19.461Z,925.54
2016-11-15T04:23:29.989Z,925.53
2016-11-15T04:26:05.574Z,925.54
2016-11-15T04:27:16.103Z,925.52
2016-11-15T04:28:26.634Z,925.52
2016-11-15T04:29:37.170Z,925.51
2016-11-15T04:30:47.799Z,925.56
2016-11-15T04:31:58.325Z,925.48
2016-11-15T04:33:08.852Z,925.53
2016-11-15T04:34:19.385Z,925.54
2016-11-15T04:35:30.229Z,925.53
2016-11-15T04:36:41.469Z,925.55
2016-11-15T04:37:52.097Z,925.54
2016-11-15T04:39:02.630Z,925.55
2016-11-15T04:40:13.163Z,925.51
2016-11-15T04:41:23.694Z,925.48
2016-11-15T04:42:34.222Z,925.49
2016-11-15T04:43:44.750Z,925.5
2016-11-15T04:44:55.286Z,925.51
2016-11-15T04:46:05.812Z,925.51
2016-11-15T04:47:16.470Z,925.59
2016-11-15T04:48:27.000Z,925.61
2016-11-15T04:49:52.060Z,925.64
2016-11-15T04:51:03.083Z,925.67
2016-11-15T04:52:13.616Z,925.68
2016-11-15T04:53:24.375Z,925.7
2016-11-15T04:54:34.904Z,925.73
2016-11-15T04:55:45.435Z,925.73
2016-11-15T04:56:55.975Z,925.72
2016-11-15T04:58:06.603Z,925.74
2016-11-15T04:59:17.129Z,925.7
2016-11-15T05:00:27.664Z,925.68
2016-11-15T05:01:38.194Z,925.69
2016-11-15T05:02:48.726Z,925.66
2016-11-15T05:03:59.255Z,925.64
2016-11-15T05:05:09.791Z,925.61
2016-11-15T05:06:34.756Z,925.62
2016-11-15T05:07:45.171Z,925.61
2016-11-15T05:08:55.615Z,925.61
2016-11-15T05:10:06.126Z,925.61
2016-11-15T05:11:16.539Z,925.57
2016-11-15T05:12:26.950Z,925.61
2016-11-15T05:13:37.359Z,925.6
2016-11-15T05:14:47.969Z,925.6
2016-11-15T05:15:58.415Z,925.59
2016-11-15T05:17:08.824Z,925.61
2016-11-15T05:18:19.232Z,925.6
2016-11-15T05:19:29.643Z,925.6
2016-11-15T05:20:40.058Z,925.57
2016-11-15T05:21:50.478Z,925.57
2016-11-15T05:23:00.888Z,925.58
2016-11-15T05:24:26.335Z,925.61
2016-11-15T05:25:36.749Z,925.61
2016-11-15T05:26:47.292Z,925.66
2016-11-15T05:27:57.741Z,925.64
2016-11-15T05:29:08.151Z,925.66
2016-11-15T05:30:18.557Z,925.64
2016-11-15T05:31:29.076Z,925.67
2016-11-15T05:32:39.486Z,925.66
2016-11-15T05:33:49.900Z,925.69
2016-11-15T05:35:00.311Z,925.69
2016-11-15T05:36:10.727Z,925.69
2016-11-15T05:38:46.127Z,925.65
2016-11-15T05:39:56.537Z,925.65
2016-11-15T05:41:06.952Z,925.61
2016-11-15T05:42:17.362Z,925.64
2016-11-15T05:44:52.740Z,925.61
2016-11-15T05:46:03.148Z,925.57
2016-11-15T05:47:13.563Z,925.53
2016-11-15T05:48:38.521Z,925.56
2016-11-15T05:49:48.931Z,925.53
2016-11-15T05:50:59.343Z,925.48
2016-11-15T05:52:09.793Z,925.48
2016-11-15T05:53:20.307Z,925.46
2016-11-15T05:54:30.715Z,925.44
2016-11-15T05:55:41.128Z,925.42
2016-11-15T05:56:51.551Z,925.42
2016-11-15T05:58:16.512Z,925.49
2016-11-15T05:59:27.122Z,925.4
2016-11-15T06:00:52.110Z,925.39
2016-11-15T06:02:03.009Z,925.35
2016-11-15T06:03:13.417Z,925.34
2016-11-15T06:04:23.842Z,925.28
2016-11-15T06:05:34.252Z,925.27
2016-11-15T06:06:44.660Z,925.27
2016-11-15T06:07:55.071Z,925.29
2016-11-15T06:09:05.687Z,925.32
2016-11-15T06:10:16.099Z,925.27
2016-11-15T06:11:27.001Z,925.27
2016-11-15T06:12:37.411Z,925.27
2016-11-15T06:13:47.821Z,925.21
2016-11-15T06:15:12.881Z,925.19
2016-11-15T06:16:23.290Z,925.17
2016-11-15T06:17:34.354Z,925.18
2016-11-15T06:18:45.250Z,925.15
2016-11-15T06:19:55.687Z,925.17
2016-11-15T06:21:06.303Z,925.17
2016-11-15T06:22:16.715Z,925.2
2016-11-15T06:23:27.128Z,925.19
2016-11-15T06:24:37.540Z,925.22
2016-11-15T06:25:47.956Z,925.17
2016-11-15T06:26:58.470Z,925.16
2016-11-15T06:28:08.879Z,925.13
2016-11-15T06:29:19.297Z,925.09
2016-11-15T06:30:29.709Z,925.12
2016-11-15T06:31:40.122Z,925.09
2016-11-15T06:32:50.534Z,925.08
2016-11-15T06:34:00.984Z,925.1
2016-11-15T06:35:11.395Z,925.1
2016-11-15T06:36:21.805Z,925.06
2016-11-15T06:37:32.214Z,925.07
2016-11-15T06:38:42.726Z,925.03
2016-11-15T06:39:53.147Z,925
2016-11-15T06:41:03.467Z,924.98
2016-11-15T06:42:13.784Z,924.91
2016-11-15T06:43:24.142Z,924.93
2016-11-15T06:44:34.561Z,924.87
2016-11-15T06:45:44.879Z,924.87
2016-11-15T06:46:55.198Z,924.89
2016-11-15T06:48:05.515Z,924.92
2016-11-15T06:49:15.835Z,924.93
2016-11-15T06:50:26.252Z,924.89
2016-11-15T06:51:36.576Z,924.91
2016-11-15T06:52:46.901Z,924.95
2016-11-15T06:53:57.220Z,924.95
2016-11-15T06:55:07.537Z,924.9
2016-11-15T06:56:18.053Z,924.94
2016-11-15T06:57:28.372Z,924.89
2016-11-15T06:58:38.700Z,924.92
2016-11-15T06:59:49.047Z,924.96
2016-11-15T07:00:59.363Z,924.89
2016-11-15T07:03:34.567Z,924.83
2016-11-15T07:04:44.928Z,924.86
2016-11-15T07:05:55.256Z,924.82
2016-11-15T07:07:05.578Z,924.78
2016-11-15T07:08:15.895Z,924.76
2016-11-15T07:09:26.222Z,924.74
2016-11-15T07:10:36.541Z,924.73
2016-11-15T07:11:46.864Z,924.67
2016-11-15T07:12:58.184Z,924.69
2016-11-15T07:14:08.504Z,924.67
2016-11-15T07:15:18.821Z,924.64
2016-11-15T07:16:29.139Z,924.64
2016-11-15T07:17:39.460Z,924.63
2016-11-15T07:18:49.775Z,924.59
2016-11-15T07:20:00.094Z,924.58
2016-11-15T07:21:10.413Z,924.55
2016-11-15T07:22:20.734Z,924.57
2016-11-15T07:23:31.054Z,924.55
2016-11-15T07:24:41.372Z,924.46
2016-11-15T07:25:51.694Z,924.48
2016-11-15T07:27:02.011Z,924.49
2016-11-15T07:28:12.330Z,924.48
2016-11-15T07:29:22.650Z,924.46
2016-11-15T07:30:33.174Z,924.41
2016-11-15T07:31:43.495Z,924.43
2016-11-15T07:32:53.815Z,924.39
2016-11-15T07:35:29.019Z,924.38
2016-11-15T07:36:39.340Z,924.39
2016-11-15T07:37:49.660Z,924.41
2016-11-15T07:38:59.976Z,924.44
2016-11-15T07:40:10.297Z,924.41
2016-11-15T07:41:20.712Z,924.48
2016-11-15T07:42:31.040Z,924.46
2016-11-15T07:43:55.943Z,924.47
2016-11-15T07:45:06.260Z,924.49
2016-11-15T07:46:16.586Z,924.52
2016-11-15T07:47:27.004Z,924.55
2016-11-15T07:48:37.326Z,924.56
2016-11-15T07:49:47.645Z,924.56
2016-11-15T07:50:57.963Z,924.53
2016-11-15T07:52:08.292Z,924.54
2016-11-15T07:53:18.629Z,924.54
2016-11-15T07:54:29.072Z,924.57
2016-11-15T07:55:39.543Z,924.56
2016-11-15T07:56:49.983Z,924.56
2016-11-15T07:58:00.652Z,924.59
2016-11-15T07:59:11.088Z,924.58
2016-11-15T08:00:21.523Z,924.56
2016-11-15T08:01:31.964Z,924.54
2016-11-15T08:02:56.947Z,924.54
2016-11-15T08:04:07.586Z,924.6
2016-11-15T08:05:18.019Z,924.59
2016-11-15T08:06:28.944Z,924.55
2016-11-15T08:07:39.380Z,924.57
2016-11-15T08:09:04.366Z,924.59
2016-11-15T08:10:14.804Z,924.57
2016-11-15T08:11:25.237Z,924.58
2016-11-15T08:12:35.678Z,924.56
2016-11-15T08:13:46.310Z,924.56
2016-11-15T08:14:56.749Z,924.56
2016-11-15T08:16:07.682Z,924.58
2016-11-15T08:17:18.149Z,924.58
2016-11-15T08:18:28.579Z,924.63
2016-11-15T08:19:39.221Z,924.62
2016-11-15T08:20:49.658Z,924.61
2016-11-15T08:22:00.127Z,924.61
2016-11-15T08:23:10.588Z,924.64
2016-11-15T08:24:21.023Z,924.68
2016-11-15T08:25:31.665Z,924.69
2016-11-15T08:26:42.100Z,924.69
2016-11-15T08:27:52.538Z,924.71
2016-11-15T08:29:02.976Z,924.72
2016-11-15T08:30:13.411Z,924.74
2016-11-15T08:31:23.877Z,924.72
2016-11-15T08:32:34.314Z,924.76
2016-11-15T08:33:44.755Z,924.79
2016-11-15T08:36:06.114Z,924.82
2016-11-15T08:37:16.752Z,924.8
2016-11-15T08:38:27.192Z,924.85
2016-11-15T08:39:37.644Z,924.87
2016-11-15T08:40:48.079Z,924.89
2016-11-15T08:41:58.516Z,924.93
2016-11-15T08:43:08.951Z,924.93
2016-11-15T08:44:19.389Z,924.9
2016-11-15T08:45:29.827Z,924.96
2016-11-15T08:46:40.266Z,924.98
2016-11-15T08:47:50.734Z,925.03
2016-11-15T08:49:01.402Z,925
2016-11-15T08:50:11.839Z,925.06
2016-11-15T08:52:47.252Z,925.11
2016-11-15T08:53:58.177Z,925.09
2016-11-15T08:55:08.886Z,925.07
2016-11-15T08:56:19.316Z,925.13
2016-11-15T08:57:44.296Z,925.15
2016-11-15T08:58:54.729Z,925.15
2016-11-15T09:00:05.165Z,925.15
2016-11-15T09:01:30.150Z,925.2
2016-11-15T09:02:40.587Z,925.16
2016-11-15T09:03:51.027Z,925.18
2016-11-15T09:05:01.568Z,925.2
2016-11-15T09:06:12.007Z,925.17
2016-11-15T09:07:22.444Z,925.17
2016-11-15T09:08:32.880Z,925.17
2016-11-15T09:09:43.315Z,925.16
2016-11-15T09:10:53.854Z,925.18
2016-11-15T09:12:04.320Z,925.24
2016-11-15T09:13:14.756Z,925.28
2016-11-15T09:14:25.196Z,925.34
2016-11-15T09:15:35.632Z,925.33
2016-11-15T09:16:46.076Z,925.35
2016-11-15T09:17:56.508Z,925.36
2016-11-15T09:19:06.939Z,925.31
2016-11-15T09:20:17.379Z,925.31
2016-11-15T09:21:27.813Z,925.31
2016-11-15T09:22:38.346Z,925.31
2016-11-15T09:23:48.781Z,925.3
2016-11-15T09:24:59.255Z,925.28
2016-11-15T09:26:09.689Z,925.29
2016-11-15T09:27:20.122Z,925.3
2016-11-15T09:28:30.759Z,925.28
2016-11-15T09:29:41.190Z,925.32
2016-11-15T09:30:51.627Z,925.33
2016-11-15T09:32:02.062Z,925.33
2016-11-15T09:33:12.496Z,925.31
2016-11-15T09:34:23.129Z,925.33
2016-11-15T09:35:33.563Z,925.32
2016-11-15T09:36:44.003Z,925.34
2016-11-15T09:38:08.982Z,925.36
2016-11-15T09:39:34.161Z,925.4
2016-11-15T09:40:44.596Z,925.41
2016-11-15T09:41:56.082Z,925.45
2016-11-15T09:43:06.529Z,925.46
2016-11-15T09:44:17.882Z,925.51
2016-11-15T09:45:28.416Z,925.52
2016-11-15T09:46:38.856Z,925.49
2016-11-15T09:47:49.287Z,925.56
2016-11-15T09:48:59.720Z,925.56
2016-11-15T09:50:10.158Z,925.57
2016-11-15T09:51:20.592Z,925.58
2016-11-15T09:52:31.862Z,925.62
2016-11-15T09:53:42.298Z,925.62
2016-11-15T09:54:52.737Z,925.62
2016-11-15T09:56:03.177Z,925.66
2016-11-15T09:57:13.614Z,925.69
2016-11-15T09:58:24.064Z,925.67
2016-11-15T09:59:34.497Z,925.65
2016-11-15T10:00:44.929Z,925.67
2016-11-15T10:01:55.364Z,925.7
2016-11-15T10:03:05.903Z,925.73
2016-11-15T10:04:16.343Z,925.71
2016-11-15T10:05:26.785Z,925.77
2016-11-15T10:06:37.224Z,925.79
2016-11-15T10:07:47.651Z,925.84
2016-11-15T10:08:58.074Z,925.87
2016-11-15T10:10:08.390Z,925.92
2016-11-15T10:11:18.708Z,925.92
2016-11-15T10:12:44.084Z,925.93
2016-11-15T10:13:54.404Z,925.92
2016-11-15T10:15:04.821Z,925.91
2016-11-15T10:16:15.141Z,925.93
2016-11-15T10:17:25.471Z,925.91
2016-11-15T10:18:36.138Z,925.85
2016-11-15T10:19:46.559Z,925.91
2016-11-15T10:20:56.875Z,925.92
2016-11-15T10:22:07.195Z,925.91
2016-11-15T10:23:17.517Z,925.96
2016-11-15T10:24:27.853Z,925.95
2016-11-15T10:25:38.270Z,925.94
2016-11-15T10:26:48.681Z,925.95
2016-11-15T10:27:59.095Z,925.93
2016-11-15T10:29:09.506Z,925.96
2016-11-15T10:30:19.921Z,925.97
2016-11-15T10:31:30.441Z,926
2016-11-15T10:32:40.863Z,926
2016-11-15T10:33:51.271Z,925.95
2016-11-15T10:35:01.680Z,926.02
2016-11-15T10:36:12.090Z,925.99
2016-11-15T10:37:22.597Z,925.97
2016-11-15T10:38:33.004Z,925.96
2016-11-15T10:39:43.414Z,925.98
2016-11-15T10:41:08.378Z,926
2016-11-15T10:42:33.923Z,926.01
2016-11-15T10:43:44.333Z,926.02
2016-11-15T10:44:54.776Z,926.02
2016-11-15T10:46:05.187Z,926.01
2016-11-15T10:47:30.150Z,926.01
2016-11-15T10:48:40.671Z,926.01
2016-11-15T10:49:51.086Z,926.07
2016-11-15T10:51:01.494Z,926.06
2016-11-15T10:52:11.909Z,926.06
2016-11-15T10:53:22.420Z,926.05
2016-11-15T10:54:32.856Z,926.04
2016-11-15T10:55:43.268Z,926.06
2016-11-15T11:08:30.151Z,926.1
2016-11-15T11:09:40.742Z,926.12
2016-11-15T11:10:51.060Z,926.13
2016-11-15T11:12:01.381Z,926.11
2016-11-15T11:13:11.701Z,926.09
2016-11-15T11:14:22.023Z,926.1
2016-11-15T11:15:47.144Z,926.13
2016-11-15T11:16:57.935Z,926.17
2016-11-15T11:18:08.252Z,926.15
2016-11-15T11:19:18.572Z,926.16
2016-11-15T11:20:29.093Z,926.19
2016-11-15T11:21:39.412Z,926.13
2016-11-15T11:22:49.739Z,926.1
2016-11-15T11:24:00.055Z,926.12
2016-11-15T11:25:10.378Z,926.09
2016-11-15T11:26:20.799Z,926.09
2016-11-15T11:27:31.122Z,926.08
2016-11-15T11:28:41.442Z,926.05
2016-11-15T11:29:51.762Z,926.04
2016-11-15T11:31:02.086Z,926.06
2016-11-15T11:32:12.607Z,926.08
2016-11-15T11:33:22.926Z,926.04
2016-11-15T11:34:33.245Z,926.03
2016-11-15T11:35:43.607Z,926.02
2016-11-15T11:36:53.925Z,926
2016-11-15T11:38:04.245Z,925.96
2016-11-15T11:39:14.596Z,925.94
2016-11-15T11:40:25.433Z,925.88
2016-11-15T11:41:50.320Z,925.85
2016-11-15T11:43:00.643Z,925.83
2016-11-15T11:44:11.062Z,925.84
2016-11-15T11:45:21.381Z,925.79
2016-11-15T11:46:31.697Z,925.81
2016-11-15T11:47:42.018Z,925.82
2016-11-15T11:48:52.539Z,925.74
2016-11-15T11:50:02.856Z,925.72
2016-11-15T11:51:13.181Z,925.7
2016-11-15T11:52:23.495Z,925.67
2016-11-15T11:53:33.817Z,925.69
2016-11-15T11:54:44.336Z,925.69
2016-11-15T11:55:54.648Z,925.72
2016-11-15T11:57:04.966Z,925.69
2016-11-15T11:58:15.760Z,925.66
2016-11-15T11:59:26.082Z,925.66
2016-11-15T12:00:36.408Z,925.7
2016-11-15T12:01:46.725Z,925.63
2016-11-15T12:02:57.047Z,925.61
2016-11-15T12:04:07.365Z,925.56
2016-11-15T12:05:32.256Z,925.54
2016-11-15T12:06:42.677Z,925.64
2016-11-15T12:07:52.991Z,925.68
2016-11-15T12:09:03.305Z,925.69
2016-11-15T12:10:13.627Z,925.72
2016-11-15T12:12:48.833Z,925.77
2016-11-15T12:13:59.154Z,925.81
2016-11-15T12:15:09.473Z,925.83
2016-11-15T12:16:19.794Z,925.83
2016-11-15T12:17:30.147Z,925.81
2016-11-15T12:18:40.462Z,925.8
2016-11-15T12:19:50.777Z,925.85
2016-11-15T12:21:01.096Z,925.84
2016-11-15T12:22:11.517Z,925.85
2016-11-15T12:23:21.836Z,925.85
2016-11-15T12:24:32.184Z,925.79
2016-11-15T12:25:42.505Z,925.78
2016-11-15T12:26:52.829Z,925.72
2016-11-15T12:28:03.146Z,925.71
2016-11-15T12:29:13.467Z,925.71
2016-11-15T12:30:23.790Z,925.74
2016-11-15T12:31:34.115Z,925.7
2016-11-15T12:32:44.442Z,925.76
2016-11-15T12:33:54.764Z,925.74
2016-11-15T12:35:05.086Z,925.8
2016-11-15T12:36:29.981Z,925.84
2016-11-15T12:37:40.304Z,925.82
2016-11-15T12:38:50.625Z,925.84
2016-11-15T12:40:01.045Z,925.82
2016-11-15T12:41:11.403Z,925.82
2016-11-15T12:42:21.719Z,925.86
2016-11-15T12:43:32.038Z,925.9
2016-11-15T12:44:42.358Z,925.9
2016-11-15T12:45:52.676Z,925.91
2016-11-15T12:47:03.024Z,925.84
2016-11-15T12:48:13.342Z,925.87
2016-11-15T12:49:23.669Z,925.87
2016-11-15T12:50:34.233Z,925.9
2016-11-15T12:51:44.551Z,925.91
2016-11-15T12:52:54.868Z,925.94
2016-11-15T12:54:05.186Z,925.91
2016-11-15T12:55:15.546Z,925.9
2016-11-15T12:56:26.061Z,925.89
2016-11-15T12:57:36.378Z,925.88
2016-11-15T12:58:46.696Z,925.88
2016-11-15T12:59:57.015Z,925.85
2016-11-15T13:01:07.906Z,925.83
2016-11-15T13:02:18.236Z,925.85
2016-11-15T13:03:28.555Z,925.84
2016-11-15T13:04:53.447Z,925.86
2016-11-15T13:06:03.777Z,925.89
2016-11-15T13:07:14.579Z,925.87
2016-11-15T13:08:25.095Z,925.99
2016-11-15T13:09:35.425Z,925.99
2016-11-15T13:10:45.752Z,925.99
2016-11-15T13:11:56.170Z,925.96
2016-11-15T13:13:06.608Z,926.03
2016-11-15T13:14:16.943Z,926.06
2016-11-15T13:15:27.260Z,926.09
2016-11-15T13:16:37.577Z,926.13
2016-11-15T13:17:48.373Z,926.13
2016-11-15T13:18:59.265Z,926.14
2016-11-15T13:20:09.593Z,926.19
2016-11-15T13:21:34.487Z,926.15
2016-11-15T13:22:44.803Z,926.16
2016-11-15T13:23:55.125Z,926.17
2016-11-15T13:25:05.446Z,926.16
2016-11-15T13:26:15.796Z,926.14
2016-11-15T13:27:26.116Z,926.12
2016-11-15T13:28:36.437Z,926.1
2016-11-15T13:29:46.899Z,926.02
2016-11-15T13:30:57.221Z,926.08
2016-11-15T13:32:07.746Z,926.12
2016-11-15T13:33:18.071Z,926.09
2016-11-15T13:34:28.398Z,926.08
2016-11-15T13:35:38.819Z,926.13
2016-11-15T13:36:49.136Z,926.12
2016-11-15T13:37:59.463Z,926.15
2016-11-15T13:39:09.785Z,926.15
2016-11-15T13:40:20.106Z,926.2
2016-11-15T13:41:30.532Z,926.2
2016-11-15T13:42:40.849Z,926.28
2016-11-15T13:43:51.172Z,926.22
2016-11-15T13:45:01.492Z,926.22
2016-11-15T13:46:11.824Z,926.25
2016-11-15T13:47:22.257Z,926.25
2016-11-15T13:48:33.052Z,926.22
2016-11-15T13:49:43.376Z,926.22
2016-11-15T13:50:53.700Z,926.24
2016-11-15T13:52:04.027Z,926.26
2016-11-15T13:53:14.446Z,926.27
2016-11-15T13:54:24.765Z,926.29
2016-11-15T13:55:35.088Z,926.29
2016-11-15T13:56:45.416Z,926.27
2016-11-15T13:57:55.740Z,926.28
2016-11-15T13:59:06.161Z,926.22
2016-11-15T14:00:16.961Z,926.23
2016-11-15T14:01:41.849Z,926.21
2016-11-15T14:02:52.175Z,926.23
2016-11-15T14:04:02.510Z,926.24
2016-11-15T14:05:12.960Z,926.22
2016-11-15T14:06:23.406Z,926.18
2016-11-15T14:07:33.845Z,926.18
2016-11-15T14:08:44.288Z,926.13
2016-11-15T14:09:54.757Z,926.12
2016-11-15T14:11:05.683Z,926.14
2016-11-15T14:12:16.125Z,926.1
2016-11-15T14:13:26.572Z,926.1
2016-11-15T14:14:37.019Z,926.11
2016-11-15T14:15:47.457Z,926.12
2016-11-15T14:16:57.900Z,926.14
2016-11-15T14:18:08.340Z,926.21
2016-11-15T14:19:18.776Z,926.16
2016-11-15T14:20:29.218Z,926.15
2016-11-15T14:21:39.868Z,926.18
2016-11-15T14:22:50.310Z,926.19
2016-11-15T14:24:00.752Z,926.22
2016-11-15T14:25:11.197Z,926.25
2016-11-15T14:26:36.215Z,926.38
2016-11-15T14:27:46.856Z,926.4
2016-11-15T14:28:57.301Z,926.37
2016-11-15T14:30:07.745Z,926.38
2016-11-15T14:31:18.184Z,926.31
2016-11-15T14:33:53.604Z,926.34
2016-11-15T14:35:04.043Z,926.28
2016-11-15T14:36:14.485Z,926.42
2016-11-15T14:37:24.924Z,926.45
2016-11-15T14:38:35.364Z,926.48
2016-11-15T14:39:45.805Z,926.39
2016-11-15T14:41:10.789Z,926.33
2016-11-15T14:43:46.311Z,926.29
2016-11-15T14:44:56.745Z,926.33
2016-11-15T14:46:07.182Z,926.26
2016-11-15T14:47:32.170Z,926.26
2016-11-15T14:48:42.606Z,926.2
2016-11-15T14:49:53.042Z,926.21
2016-11-15T14:51:03.480Z,926.22
2016-11-15T14:52:14.405Z,926.22
2016-11-15T14:53:24.842Z,926.2
2016-11-15T14:54:35.281Z,926.19
2016-11-15T14:55:45.721Z,926.18
2016-11-15T14:57:10.702Z,926.13
2016-11-15T14:58:21.624Z,926.13
2016-11-15T14:59:32.059Z,926.1
2016-11-15T15:00:42.497Z,926.13
2016-11-15T15:01:52.935Z,926.08
2016-11-15T15:03:03.375Z,926.12
2016-11-15T15:04:14.020Z,926.07
2016-11-15T15:05:39.015Z,926.04
2016-11-15T15:06:49.462Z,926.09
2016-11-15T15:07:59.911Z,926.04
2016-11-15T15:09:10.350Z,926.01
2016-11-15T15:10:20.791Z,926.02
2016-11-15T15:11:45.775Z,926.04
2016-11-15T15:12:56.210Z,926.04
2016-11-15T15:14:06.532Z,926.02
2016-11-15T15:15:16.952Z,925.99
2016-11-15T15:16:27.272Z,926.02
2016-11-15T15:17:37.595Z,926.02
2016-11-15T15:18:47.916Z,926
2016-11-15T15:19:58.909Z,925.97
2016-11-15T15:21:09.227Z,925.94